createdAt,value
2022-07-29T00:00:41.671Z,98417.19
2022-07-29T16:58:17.285Z,98453.34
2022-07-29T17:00:44.554Z,98452.56
2022-07-29T17:03:13.529Z,98468.97
2022-07-29T17:05:52.511Z,98462.34
2022-07-29T17:08:28.760Z,98460.72
2022-07-29T17:11:10.180Z,98464.97
2022-07-29T17:13:42.639Z,98466.03
2022-07-29T17:16:10.091Z,98471.88
2022-07-29T17:18:38.169Z,98476.13
2022-07-29T17:21:18.168Z,98476.69
2022-07-29T17:24:03.618Z,98474.50
2022-07-29T17:26:31.702Z,98474.28
2022-07-29T17:29:01.489Z,98482.97
2022-07-29T17:31:32.563Z,98468.97
2022-07-29T17:34:08.803Z,98474.28
2022-07-29T17:36:43.137Z,98479.00
2022-07-29T17:39:13.578Z,98470.28
2022-07-29T17:44:38.517Z,98485.38
2022-07-29T17:47:16.516Z,98484.34
2022-07-29T17:49:49.458Z,98481.69
2022-07-29T17:52:22.423Z,98492.22
2022-07-29T17:54:52.214Z,98487.72
2022-07-29T17:57:25.233Z,98486.94
2022-07-29T17:59:58.181Z,98488.78
2022-07-29T18:02:28.992Z,98484.59
2022-07-29T18:04:58.175Z,98479.31
2022-07-29T18:07:37.618Z,98475.06
2022-07-29T18:10:27.040Z,98467.84
2022-07-29T18:12:57.536Z,98467.06
2022-07-29T18:15:24.929Z,98467.63
2022-07-29T18:17:57.811Z,98463.38
2022-07-29T18:20:30.609Z,98470.53
2022-07-29T18:23:03.277Z,98482.72
2022-07-29T18:25:41.091Z,98478.78
2022-07-29T18:28:09.368Z,98480.63
2022-07-29T18:30:40.113Z,98477.75
2022-07-29T18:33:28.368Z,98466.16
2022-07-29T18:36:11.159Z,98463.75
2022-07-29T18:38:45.073Z,98471.97
2022-07-29T18:41:14.699Z,98481.47
2022-07-29T18:43:42.663Z,98483.56
2022-07-29T18:46:12.505Z,98483.84
2022-07-29T18:48:49.815Z,98477.22
2022-07-29T18:51:20.158Z,98490.34
2022-07-29T18:53:51.710Z,98497.75
2022-07-29T18:56:19.216Z,98500.44
2022-07-29T18:58:50.192Z,98498.31
2022-07-29T19:01:19.938Z,98507.06
2022-07-29T19:03:52.908Z,98517.09
2022-07-29T19:06:25.769Z,98506.09
2022-07-29T19:08:59.499Z,98517.41
2022-07-29T19:11:32.112Z,98522.19
2022-07-29T19:13:59.388Z,98525.56
2022-07-29T19:16:26.826Z,98524.25
2022-07-29T19:18:56.781Z,98531.38
2022-07-29T19:21:39.804Z,98530.59
2022-07-29T19:24:17.492Z,98533.75
2022-07-29T19:26:47.382Z,98542.72
2022-07-29T19:29:16.318Z,98547.78
2022-07-29T19:31:50.929Z,98549.34
2022-07-29T19:34:19.991Z,98557.25
2022-07-29T19:36:47.233Z,98562.78
2022-07-29T19:39:31.763Z,98559.88
2022-07-29T19:42:13.083Z,98564.38
2022-07-29T19:44:48.792Z,98564.09
2022-07-29T19:47:18.782Z,98572.31
2022-07-29T19:49:46.202Z,98578.91
2022-07-29T19:52:15.864Z,98583.13
2022-07-29T19:54:47.418Z,98589.72
2022-07-29T19:57:15.822Z,98596.63
2022-07-29T20:00:04.987Z,98593.44
2022-07-29T20:02:40.473Z,98602.91
2022-07-29T20:05:27.858Z,98607.66
2022-07-29T20:08:01.283Z,98612.41
2022-07-29T20:10:32.247Z,98616.66
2022-07-29T20:13:02.193Z,98611.91
2022-07-29T20:15:37.188Z,98617.44
2022-07-29T20:18:04.720Z,98621.38
2022-07-29T20:20:32.133Z,98619.75
2022-07-29T20:23:05.822Z,98622.69
2022-07-29T20:25:33.277Z,98627.69
2022-07-29T20:28:01.787Z,98626.91
2022-07-29T20:30:29.687Z,98631.41
2022-07-29T20:32:59.271Z,98624.00
2022-07-29T20:35:34.802Z,98624.47
2022-07-29T20:38:06.470Z,98624.19
2022-07-29T20:40:39.777Z,98629.47
2022-07-29T20:43:11.467Z,98622.38
2022-07-29T20:45:51.295Z,98619.75
2022-07-29T20:48:22.479Z,98623.97
2022-07-29T20:50:54.790Z,98612.09
2022-07-29T20:53:25.345Z,98610.53
2022-07-29T20:56:04.043Z,98606.31
2022-07-29T20:58:43.629Z,98607.66
2022-07-29T21:01:26.343Z,98601.34
2022-07-29T21:03:57.019Z,98605.53
2022-07-29T21:06:24.283Z,98602.66
2022-07-29T21:09:00.978Z,98594.22
2022-07-29T21:11:43.702Z,98602.94
2022-07-29T21:14:44.401Z,98599.75
2022-07-29T21:17:11.633Z,98589.47
2022-07-29T21:19:43.403Z,98582.34
2022-07-29T21:22:12.502Z,98574.94
2022-07-29T21:24:45.908Z,98579.16
2022-07-29T21:27:40.073Z,98578.63
2022-07-29T21:30:09.113Z,98569.38
2022-07-29T21:32:36.791Z,98570.44
2022-07-29T21:35:18.209Z,98569.38
2022-07-29T21:37:56.924Z,98572.31
2022-07-29T21:40:27.133Z,98569.13
2022-07-29T21:42:54.113Z,98570.72
2022-07-29T21:45:24.293Z,98568.84
2022-07-29T21:47:51.303Z,98574.66
2022-07-29T21:50:18.670Z,98568.59
2022-07-29T21:52:47.978Z,98581.78
2022-07-29T21:55:15.678Z,98576.75
2022-07-29T21:57:45.789Z,98585.78
2022-07-29T22:00:16.680Z,98568.88
2022-07-29T22:02:44.247Z,98567.81
2022-07-29T22:05:15.140Z,98563.59
2022-07-29T22:07:54.742Z,98569.69
2022-07-29T22:10:26.214Z,98568.34
2022-07-29T22:12:55.547Z,98572.84
2022-07-29T22:15:24.355Z,98567.84
2022-07-29T22:17:54.007Z,98566.25
2022-07-29T22:20:21.599Z,98576.56
2022-07-29T22:22:48.974Z,98561.78
2022-07-29T22:25:16.343Z,98546.97
2022-07-29T22:27:44.658Z,98548.06
2022-07-29T22:30:12.474Z,98556.78
2022-07-29T22:32:40.003Z,98553.56
2022-07-29T22:35:08.083Z,98555.44
2022-07-29T22:37:35.454Z,98550.94
2022-07-29T22:40:02.998Z,98558.88
2022-07-29T22:42:30.853Z,98559.16
2022-07-29T22:45:00.708Z,98565.75
2022-07-29T22:47:46.150Z,98561.25
2022-07-29T22:50:15.592Z,98552.81
2022-07-29T22:52:45.922Z,98550.69
2022-07-29T22:55:14.469Z,98547.03
2022-07-29T22:57:41.976Z,98549.66
2022-07-29T23:00:10.038Z,98549.91
2022-07-29T23:02:40.729Z,98544.38
2022-07-29T23:05:11.441Z,98543.31
2022-07-29T23:07:40.040Z,98544.91
2022-07-29T23:10:12.853Z,98538.31
2022-07-29T23:12:43.975Z,98537.25
2022-07-29T23:15:11.213Z,98539.88
2022-07-29T23:17:38.393Z,98542.28
2022-07-29T23:20:08.065Z,98542.81
2022-07-29T23:22:39.069Z,98543.34
2022-07-29T23:25:06.983Z,98540.16
2022-07-29T23:27:34.183Z,98539.09
2022-07-29T23:30:01.537Z,98533.53
2022-07-29T23:32:28.805Z,98532.78
2022-07-29T23:34:56.018Z,98534.38
2022-07-29T23:37:23.782Z,98539.88
2022-07-29T23:39:54.237Z,98538.03
2022-07-29T23:42:21.482Z,98539.63
2022-07-29T23:44:48.852Z,98540.13
2022-07-29T23:47:16.137Z,98537.75
2022-07-29T23:49:43.502Z,98533.03
2022-07-29T23:52:10.642Z,98543.56
2022-07-29T23:54:38.043Z,98543.28
2022-07-29T23:57:05.464Z,98543.56
2022-07-29T23:59:32.993Z,98542.00
